createdAt,value
2022-09-14T00:01:27.339Z,21
2022-09-14T00:06:36.056Z,21
2022-09-14T00:11:48.190Z,21
2022-09-14T00:17:00.521Z,21
2022-09-14T00:22:12.647Z,21
2022-09-14T00:27:24.792Z,21
2022-09-14T00:32:37.208Z,21
2022-09-14T00:37:49.407Z,21
2022-09-14T00:43:01.612Z,21
2022-09-14T00:48:13.887Z,21
2022-09-14T00:53:26.125Z,21
2022-09-14T00:58:38.548Z,21
2022-09-14T01:03:50.685Z,21
2022-09-14T01:09:02.816Z,21
2022-09-14T01:14:14.929Z,20
2022-09-14T01:19:27.037Z,20
2022-09-14T01:24:39.207Z,20
2022-09-14T01:29:51.529Z,20
2022-09-14T01:35:03.565Z,20
2022-09-14T01:40:15.844Z,20
2022-09-14T01:45:28.470Z,20
2022-09-14T01:50:40.618Z,20
2022-09-14T01:55:52.857Z,20
2022-09-14T02:01:05.764Z,20
2022-09-14T02:06:17.989Z,20
2022-09-14T02:11:30.269Z,20
2022-09-14T02:16:42.623Z,20
2022-09-14T02:21:54.889Z,20
2022-09-14T02:27:06.939Z,20
2022-09-14T02:32:19.111Z,20
2022-09-14T02:37:31.219Z,20
2022-09-14T02:42:43.307Z,20
2022-09-14T02:47:55.740Z,20
2022-09-14T02:53:07.808Z,20
2022-09-14T02:58:19.859Z,20
2022-09-14T03:03:36.489Z,19
2022-09-14T03:08:50.046Z,19
2022-09-14T03:14:02.389Z,19
2022-09-14T03:19:14.587Z,19
2022-09-14T03:24:26.891Z,19
2022-09-14T03:29:39.159Z,20
2022-09-14T03:34:51.753Z,20
2022-09-14T03:40:03.943Z,19
2022-09-14T03:45:16.079Z,20
2022-09-14T03:50:28.232Z,20
2022-09-14T03:55:40.459Z,20
2022-09-14T04:00:52.698Z,20
2022-09-14T04:06:05.071Z,20
2022-09-14T04:11:17.396Z,20
2022-09-14T04:16:29.645Z,20
2022-09-14T04:21:41.837Z,20
2022-09-14T04:26:54.138Z,20
2022-09-14T04:32:06.308Z,20
2022-09-14T04:37:18.611Z,20
2022-09-14T04:42:30.750Z,20
2022-09-14T04:47:42.809Z,20
2022-09-14T04:52:55.154Z,19
2022-09-14T04:58:07.402Z,20
2022-09-14T05:03:19.846Z,20
2022-09-14T05:08:32.264Z,20
2022-09-14T05:13:50.772Z,20
2022-09-14T05:19:05.410Z,20
2022-09-14T05:24:17.773Z,20
2022-09-14T05:29:30.129Z,20
2022-09-14T05:34:42.147Z,20
2022-09-14T05:39:54.781Z,20
2022-09-14T05:45:06.939Z,20
2022-09-14T05:50:19.717Z,20
2022-09-14T05:55:32.472Z,20
2022-09-14T06:00:45.048Z,21
2022-09-14T06:05:57.410Z,21
2022-09-14T06:11:10.130Z,21
2022-09-14T06:16:22.447Z,21
2022-09-14T06:21:34.800Z,21
2022-09-14T06:26:47.167Z,21
2022-09-14T06:31:59.711Z,21
2022-09-14T06:37:12.179Z,21
2022-09-14T06:42:24.834Z,21
2022-09-14T06:47:37.500Z,21
2022-09-14T06:52:50.090Z,21
2022-09-14T06:58:02.574Z,21
2022-09-14T07:03:15.439Z,22
2022-09-14T07:08:28.132Z,22
2022-09-14T07:13:40.825Z,22
2022-09-14T07:18:53.579Z,22
2022-09-14T07:24:06.350Z,23
2022-09-14T07:29:18.999Z,23
2022-09-14T07:34:31.519Z,23
2022-09-14T07:39:44.178Z,23
2022-09-14T07:44:56.734Z,23
2022-09-14T07:50:09.249Z,23
2022-09-14T07:55:21.920Z,23
2022-09-14T08:00:34.872Z,23
2022-09-14T08:05:47.650Z,24
2022-09-14T08:11:00.280Z,24
2022-09-14T08:16:13.578Z,24
2022-09-14T08:21:26.410Z,24
2022-09-14T08:26:38.890Z,24
2022-09-14T08:31:51.837Z,24
2022-09-14T08:37:04.220Z,24
2022-09-14T08:42:16.929Z,24
2022-09-14T08:47:29.626Z,24
2022-09-14T08:52:42.280Z,24
2022-09-14T08:57:54.993Z,24
2022-09-14T09:08:18.308Z,23
2022-09-14T09:13:30.480Z,24
2022-09-14T09:18:43.213Z,24
2022-09-14T09:23:56.098Z,24
2022-09-14T09:29:08.690Z,24
2022-09-14T09:34:21.470Z,24
2022-09-14T09:39:34.524Z,25
2022-09-14T09:44:47.299Z,25
2022-09-14T09:50:00.146Z,25
2022-09-14T09:55:12.936Z,26
2022-09-14T10:00:25.473Z,26
2022-09-14T10:05:37.872Z,26
2022-09-14T10:10:50.516Z,26
2022-09-14T10:16:03.373Z,26
2022-09-14T10:21:15.922Z,27
2022-09-14T10:26:28.696Z,27
2022-09-14T10:31:41.708Z,27
2022-09-14T10:36:54.031Z,27
2022-09-14T10:42:07.045Z,28
2022-09-14T10:47:21.471Z,28
2022-09-14T10:52:34.339Z,28
2022-09-14T10:57:47.307Z,29
2022-09-14T11:03:00.735Z,29
2022-09-14T11:23:45.394Z,27
2022-09-14T11:28:58.639Z,28
2022-09-14T11:34:12.380Z,28
2022-09-14T11:39:26.994Z,29
2022-09-14T11:44:40.472Z,30
2022-09-14T11:49:55.921Z,32
2022-09-14T11:55:10.900Z,34
2022-09-14T12:00:25.581Z,36
2022-09-14T12:05:38.941Z,35
2022-09-14T12:21:13.923Z,35
2022-09-14T12:31:37.217Z,34
2022-09-14T12:47:12.164Z,33
2022-09-14T13:02:45.931Z,33
2022-09-14T13:33:52.690Z,30
2022-09-14T13:39:04.630Z,30
2022-09-14T13:44:17.413Z,32
2022-09-14T13:54:41.509Z,32
2022-09-14T14:10:21.084Z,31
2022-09-14T14:15:35.596Z,31
2022-09-14T14:20:48.508Z,31
2022-09-14T14:36:21.963Z,30
2022-09-14T14:41:34.495Z,30
2022-09-14T14:51:57.235Z,29
2022-09-14T15:02:20.645Z,28
2022-09-14T15:07:38.367Z,28
2022-09-14T15:12:52.633Z,28
2022-09-14T15:23:15.315Z,28
2022-09-14T15:33:37.925Z,27
2022-09-14T15:38:51.127Z,28
2022-09-14T15:49:13.873Z,27
2022-09-14T15:59:36.800Z,27
2022-09-14T16:04:49.244Z,27
2022-09-14T16:10:01.895Z,27
2022-09-14T16:15:14.690Z,27
2022-09-14T16:20:27.116Z,27
2022-09-14T16:25:39.646Z,27
2022-09-14T16:30:52.641Z,27
2022-09-14T16:36:05.284Z,27
2022-09-14T16:41:17.664Z,27
2022-09-14T16:46:30.165Z,27
2022-09-14T16:51:42.724Z,26
2022-09-14T16:56:55.093Z,26
2022-09-14T17:02:11.705Z,26
2022-09-14T17:07:25.752Z,26
2022-09-14T17:12:38.083Z,26
2022-09-14T17:17:50.879Z,26
2022-09-14T17:23:03.252Z,26
2022-09-14T17:28:15.703Z,26
2022-09-14T17:33:28.746Z,26
2022-09-14T17:38:40.924Z,26
2022-09-14T17:43:53.256Z,26
2022-09-14T17:49:05.967Z,26
2022-09-14T17:59:28.977Z,26
2022-09-14T18:04:48.822Z,26
2022-09-14T18:10:01.152Z,26
2022-09-14T18:15:16.093Z,26
2022-09-14T18:20:28.227Z,25
2022-09-14T18:25:41.458Z,26
2022-09-14T18:30:54.274Z,26
2022-09-14T18:36:07.295Z,26
2022-09-14T18:41:20.343Z,26
2022-09-14T18:46:33.775Z,26
2022-09-14T18:51:47.095Z,26
2022-09-14T18:56:59.982Z,25
2022-09-14T19:02:12.710Z,25
2022-09-14T19:07:25.544Z,25
2022-09-14T19:12:38.425Z,25
2022-09-14T19:17:51.261Z,25
2022-09-14T19:23:05.191Z,25
2022-09-14T19:28:17.927Z,25
2022-09-14T19:33:31.893Z,25
2022-09-14T19:38:45.006Z,25
2022-09-14T19:43:57.984Z,25
2022-09-14T19:49:12.228Z,25
2022-09-14T19:54:25.171Z,25
2022-09-14T19:59:38.041Z,24
2022-09-14T20:04:51.240Z,24
2022-09-14T20:10:04.503Z,24
2022-09-14T20:15:17.790Z,24
2022-09-14T20:20:30.578Z,24
2022-09-14T20:25:43.855Z,24
2022-09-14T20:30:57.265Z,24
2022-09-14T20:36:11.729Z,23
2022-09-14T20:41:24.344Z,23
2022-09-14T20:46:37.705Z,23
2022-09-14T20:51:52.493Z,23
2022-09-14T20:57:06.925Z,23
2022-09-14T21:02:19.854Z,23
2022-09-14T21:07:33.233Z,23
2022-09-14T21:12:46.127Z,23
2022-09-14T21:17:59.014Z,23
2022-09-14T21:23:11.554Z,23
2022-09-14T21:28:24.246Z,23
2022-09-14T21:33:36.853Z,23
2022-09-14T21:38:49.298Z,23
2022-09-14T21:44:02.195Z,23
2022-09-14T21:49:15.696Z,23
2022-09-14T21:54:28.098Z,23
2022-09-14T21:59:40.804Z,23
2022-09-14T22:04:53.264Z,22
2022-09-14T22:10:05.565Z,23
2022-09-14T22:15:17.999Z,23
2022-09-14T22:20:30.424Z,22
2022-09-14T22:25:42.875Z,23
2022-09-14T22:30:55.690Z,22
2022-09-14T22:36:08.156Z,23
2022-09-14T22:41:20.806Z,23
2022-09-14T22:46:33.349Z,23
2022-09-14T22:51:45.736Z,23
2022-09-14T22:56:57.996Z,23
2022-09-14T23:02:10.919Z,23
2022-09-14T23:07:23.296Z,23
2022-09-14T23:12:35.606Z,23
2022-09-14T23:17:52.660Z,23
2022-09-14T23:23:07.675Z,23
2022-09-14T23:28:19.986Z,23
2022-09-14T23:33:32.547Z,23
2022-09-14T23:38:44.835Z,23
2022-09-14T23:43:57.305Z,23
2022-09-14T23:49:09.634Z,23
2022-09-14T23:54:22.005Z,23
2022-09-14T23:59:34.245Z,23
